sensor_id;sensor_type;location;lat;lon;timestamp;P1;durP1;ratioP1;P2;durP2;ratioP2
10116;SDS011;5098;48.792;9.012;2023-07-13T00:00:28;2.20;;;1.60;;
10116;SDS011;5098;48.792;9.012;2023-07-13T00:02:57;4.03;;;1.60;;
10116;SDS011;5098;48.792;9.012;2023-07-13T00:05:23;4.50;;;1.73;;
10116;SDS011;5098;48.792;9.012;2023-07-13T00:07:50;3.03;;;1.40;;
10116;SDS011;5098;48.792;9.012;2023-07-13T00:10:16;4.43;;;1.50;;
10116;SDS011;5098;48.792;9.012;2023-07-13T00:12:43;2.77;;;1.70;;
10116;SDS011;5098;48.792;9.012;2023-07-13T00:15:13;3.53;;;1.97;;
10116;SDS011;5098;48.792;9.012;2023-07-13T00:17:41;1.80;;;1.50;;
10116;SDS011;5098;48.792;9.012;2023-07-13T00:20:10;3.20;;;1.40;;
10116;SDS011;5098;48.792;9.012;2023-07-13T00:22:36;12.33;;;10.03;;
10116;SDS011;5098;48.792;9.012;2023-07-13T00:25:02;12.40;;;8.83;;
10116;SDS011;5098;48.792;9.012;2023-07-13T00:27:29;43.47;;;33.17;;
10116;SDS011;5098;48.792;9.012;2023-07-13T00:29:56;50.20;;;36.33;;
10116;SDS011;5098;48.792;9.012;2023-07-13T00:32:22;83.30;;;58.70;;
10116;SDS011;5098;48.792;9.012;2023-07-13T00:34:50;4.80;;;3.50;;
10116;SDS011;5098;48.792;9.012;2023-07-13T00:37:16;5.33;;;3.47;;
10116;SDS011;5098;48.792;9.012;2023-07-13T00:39:42;13.53;;;7.53;;
10116;SDS011;5098;48.792;9.012;2023-07-13T00:42:08;3.70;;;2.43;;
10116;SDS011;5098;48.792;9.012;2023-07-13T00:44:36;5.13;;;3.97;;
10116;SDS011;5098;48.792;9.012;2023-07-13T00:47:02;6.63;;;4.40;;
10116;SDS011;5098;48.792;9.012;2023-07-13T00:49:29;9.20;;;6.03;;
10116;SDS011;5098;48.792;9.012;2023-07-13T00:51:57;4.30;;;3.07;;
10116;SDS011;5098;48.792;9.012;2023-07-13T00:54:25;2.37;;;1.70;;
10116;SDS011;5098;48.792;9.012;2023-07-13T00:56:54;3.83;;;2.70;;
10116;SDS011;5098;48.792;9.012;2023-07-13T00:59:21;4.77;;;3.07;;
10116;SDS011;5098;48.792;9.012;2023-07-13T01:01:48;4.20;;;2.10;;
10116;SDS011;5098;48.792;9.012;2023-07-13T01:04:14;5.10;;;2.20;;
10116;SDS011;5098;48.792;9.012;2023-07-13T01:06:40;7.23;;;2.43;;
10116;SDS011;5098;48.792;9.012;2023-07-13T01:09:09;3.47;;;1.57;;
10116;SDS011;5098;48.792;9.012;2023-07-13T01:11:35;2.53;;;1.73;;
10116;SDS011;5098;48.792;9.012;2023-07-13T01:14:02;5.03;;;1.80;;
10116;SDS011;5098;48.792;9.012;2023-07-13T01:16:30;3.53;;;1.43;;
10116;SDS011;5098;48.792;9.012;2023-07-13T01:18:57;2.50;;;1.30;;
10116;SDS011;5098;48.792;9.012;2023-07-13T01:21:23;4.13;;;1.60;;
10116;SDS011;5098;48.792;9.012;2023-07-13T01:23:49;2.63;;;1.70;;
10116;SDS011;5098;48.792;9.012;2023-07-13T01:26:15;3.70;;;1.50;;
10116;SDS011;5098;48.792;9.012;2023-07-13T01:28:42;4.33;;;1.70;;
10116;SDS011;5098;48.792;9.012;2023-07-13T01:31:08;2.87;;;1.50;;
10116;SDS011;5098;48.792;9.012;2023-07-13T01:33:35;5.53;;;1.80;;
10116;SDS011;5098;48.792;9.012;2023-07-13T01:36:02;4.50;;;1.40;;
10116;SDS011;5098;48.792;9.012;2023-07-13T01:38:28;2.53;;;1.83;;
10116;SDS011;5098;48.792;9.012;2023-07-13T01:40:54;3.70;;;1.40;;
10116;SDS011;5098;48.792;9.012;2023-07-13T01:43:20;2.20;;;1.90;;
10116;SDS011;5098;48.792;9.012;2023-07-13T01:45:46;3.20;;;1.67;;
10116;SDS011;5098;48.792;9.012;2023-07-13T01:48:12;3.13;;;1.70;;
10116;SDS011;5098;48.792;9.012;2023-07-13T01:50:39;4.90;;;1.80;;
10116;SDS011;5098;48.792;9.012;2023-07-13T01:53:05;3.77;;;2.23;;
10116;SDS011;5098;48.792;9.012;2023-07-13T01:55:31;3.50;;;1.80;;
10116;SDS011;5098;48.792;9.012;2023-07-13T01:57:57;5.30;;;2.10;;
10116;SDS011;5098;48.792;9.012;2023-07-13T02:00:23;5.03;;;1.93;;
10116;SDS011;5098;48.792;9.012;2023-07-13T02:02:50;3.07;;;1.60;;
10116;SDS011;5098;48.792;9.012;2023-07-13T02:05:16;8.67;;;1.60;;
10116;SDS011;5098;48.792;9.012;2023-07-13T02:07:42;3.27;;;1.83;;
10116;SDS011;5098;48.792;9.012;2023-07-13T02:10:08;2.50;;;1.53;;
10116;SDS011;5098;48.792;9.012;2023-07-13T02:12:35;3.73;;;1.83;;
10116;SDS011;5098;48.792;9.012;2023-07-13T02:15:01;4.20;;;1.93;;
10116;SDS011;5098;48.792;9.012;2023-07-13T02:17:27;2.80;;;1.60;;
10116;SDS011;5098;48.792;9.012;2023-07-13T02:19:53;3.57;;;2.13;;
10116;SDS011;5098;48.792;9.012;2023-07-13T02:22:20;3.63;;;1.80;;
10116;SDS011;5098;48.792;9.012;2023-07-13T02:24:46;2.33;;;1.70;;
10116;SDS011;5098;48.792;9.012;2023-07-13T02:27:12;5.73;;;2.10;;
10116;SDS011;5098;48.792;9.012;2023-07-13T02:29:38;3.40;;;1.90;;
10116;SDS011;5098;48.792;9.012;2023-07-13T02:32:04;3.23;;;1.70;;
10116;SDS011;5098;48.792;9.012;2023-07-13T02:34:30;4.10;;;2.10;;
10116;SDS011;5098;48.792;9.012;2023-07-13T02:36:56;2.10;;;1.70;;
10116;SDS011;5098;48.792;9.012;2023-07-13T02:39:22;3.10;;;1.63;;
10116;SDS011;5098;48.792;9.012;2023-07-13T02:41:49;4.80;;;2.27;;
10116;SDS011;5098;48.792;9.012;2023-07-13T02:44:15;3.90;;;2.07;;
10116;SDS011;5098;48.792;9.012;2023-07-13T02:46:41;2.90;;;1.47;;
10116;SDS011;5098;48.792;9.012;2023-07-13T02:49:07;3.90;;;1.70;;
10116;SDS011;5098;48.792;9.012;2023-07-13T02:51:33;2.40;;;1.50;;
10116;SDS011;5098;48.792;9.012;2023-07-13T02:54:03;4.10;;;1.63;;
10116;SDS011;5098;48.792;9.012;2023-07-13T02:56:30;10.43;;;2.00;;
10116;SDS011;5098;48.792;9.012;2023-07-13T02:58:56;4.50;;;2.20;;
10116;SDS011;5098;48.792;9.012;2023-07-13T03:01:23;6.30;;;1.97;;
10116;SDS011;5098;48.792;9.012;2023-07-13T03:03:49;8.03;;;2.23;;
10116;SDS011;5098;48.792;9.012;2023-07-13T03:06:16;2.57;;;1.70;;
10116;SDS011;5098;48.792;9.012;2023-07-13T03:08:42;2.80;;;1.80;;
10116;SDS011;5098;48.792;9.012;2023-07-13T03:11:12;4.67;;;1.63;;
10116;SDS011;5098;48.792;9.012;2023-07-13T03:13:39;2.73;;;1.77;;
10116;SDS011;5098;48.792;9.012;2023-07-13T03:16:05;6.97;;;2.07;;
10116;SDS011;5098;48.792;9.012;2023-07-13T03:18:32;5.23;;;2.40;;
10116;SDS011;5098;48.792;9.012;2023-07-13T03:20:58;6.23;;;2.30;;
10116;SDS011;5098;48.792;9.012;2023-07-13T03:23:24;3.10;;;2.00;;
10116;SDS011;5098;48.792;9.012;2023-07-13T03:25:50;3.40;;;1.93;;
10116;SDS011;5098;48.792;9.012;2023-07-13T03:28:16;5.23;;;1.83;;
10116;SDS011;5098;48.792;9.012;2023-07-13T03:30:42;3.90;;;2.10;;
10116;SDS011;5098;48.792;9.012;2023-07-13T03:33:08;4.77;;;2.30;;
10116;SDS011;5098;48.792;9.012;2023-07-13T03:35:34;3.20;;;2.20;;
10116;SDS011;5098;48.792;9.012;2023-07-13T03:38:01;3.80;;;2.00;;
10116;SDS011;5098;48.792;9.012;2023-07-13T03:40:27;2.83;;;1.70;;
10116;SDS011;5098;48.792;9.012;2023-07-13T03:42:53;4.27;;;2.27;;
10116;SDS011;5098;48.792;9.012;2023-07-13T03:45:20;3.80;;;2.23;;
10116;SDS011;5098;48.792;9.012;2023-07-13T03:47:47;2.40;;;1.90;;
10116;SDS011;5098;48.792;9.012;2023-07-13T03:50:13;4.57;;;1.87;;
10116;SDS011;5098;48.792;9.012;2023-07-13T03:52:39;2.83;;;2.00;;
10116;SDS011;5098;48.792;9.012;2023-07-13T03:55:05;5.37;;;2.03;;
10116;SDS011;5098;48.792;9.012;2023-07-13T03:57:31;4.57;;;1.93;;
10116;SDS011;5098;48.792;9.012;2023-07-13T03:59:58;3.93;;;2.33;;
10116;SDS011;5098;48.792;9.012;2023-07-13T04:02:24;5.40;;;2.30;;
10116;SDS011;5098;48.792;9.012;2023-07-13T04:04:50;4.23;;;2.10;;
10116;SDS011;5098;48.792;9.012;2023-07-13T04:07:17;8.97;;;2.47;;
10116;SDS011;5098;48.792;9.012;2023-07-13T04:09:43;5.57;;;2.20;;
10116;SDS011;5098;48.792;9.012;2023-07-13T04:12:10;4.80;;;2.20;;
10116;SDS011;5098;48.792;9.012;2023-07-13T04:14:36;6.30;;;2.10;;
10116;SDS011;5098;48.792;9.012;2023-07-13T04:17:02;6.60;;;3.13;;
10116;SDS011;5098;48.792;9.012;2023-07-13T04:19:28;4.00;;;2.10;;
10116;SDS011;5098;48.792;9.012;2023-07-13T04:21:54;3.80;;;2.47;;
10116;SDS011;5098;48.792;9.012;2023-07-13T04:24:20;3.03;;;2.20;;
10116;SDS011;5098;48.792;9.012;2023-07-13T04:26:46;5.53;;;2.43;;
10116;SDS011;5098;48.792;9.012;2023-07-13T04:29:12;9.27;;;2.50;;
10116;SDS011;5098;48.792;9.012;2023-07-13T04:31:38;5.50;;;2.70;;
10116;SDS011;5098;48.792;9.012;2023-07-13T04:34:04;4.30;;;2.30;;
10116;SDS011;5098;48.792;9.012;2023-07-13T04:36:30;3.20;;;2.23;;
10116;SDS011;5098;48.792;9.012;2023-07-13T04:38:56;3.23;;;2.23;;
10116;SDS011;5098;48.792;9.012;2023-07-13T04:41:22;4.90;;;2.47;;
10116;SDS011;5098;48.792;9.012;2023-07-13T04:43:48;5.00;;;2.60;;
10116;SDS011;5098;48.792;9.012;2023-07-13T04:46:15;4.90;;;3.20;;
10116;SDS011;5098;48.792;9.012;2023-07-13T04:48:42;5.70;;;2.40;;
10116;SDS011;5098;48.792;9.012;2023-07-13T04:51:09;4.03;;;2.10;;
10116;SDS011;5098;48.792;9.012;2023-07-13T04:53:35;5.73;;;2.73;;
10116;SDS011;5098;48.792;9.012;2023-07-13T04:56:02;3.27;;;2.70;;
10116;SDS011;5098;48.792;9.012;2023-07-13T04:58:28;3.93;;;2.30;;
10116;SDS011;5098;48.792;9.012;2023-07-13T05:00:59;4.80;;;2.57;;
10116;SDS011;5098;48.792;9.012;2023-07-13T05:03:25;5.93;;;2.37;;
10116;SDS011;5098;48.792;9.012;2023-07-13T05:05:55;2.87;;;2.20;;
10116;SDS011;5098;48.792;9.012;2023-07-13T05:08:21;8.77;;;2.87;;
10116;SDS011;5098;48.792;9.012;2023-07-13T05:10:47;3.77;;;2.40;;
10116;SDS011;5098;48.792;9.012;2023-07-13T05:13:13;4.97;;;2.20;;
10116;SDS011;5098;48.792;9.012;2023-07-13T05:15:39;7.07;;;2.70;;
10116;SDS011;5098;48.792;9.012;2023-07-13T05:18:05;7.57;;;2.40;;
10116;SDS011;5098;48.792;9.012;2023-07-13T05:20:31;7.57;;;2.50;;
10116;SDS011;5098;48.792;9.012;2023-07-13T05:22:57;3.10;;;2.30;;
10116;SDS011;5098;48.792;9.012;2023-07-13T05:25:23;4.13;;;2.50;;
10116;SDS011;5098;48.792;9.012;2023-07-13T05:27:50;4.13;;;2.43;;
10116;SDS011;5098;48.792;9.012;2023-07-13T05:30:16;3.10;;;1.97;;
10116;SDS011;5098;48.792;9.012;2023-07-13T05:32:42;5.00;;;2.67;;
10116;SDS011;5098;48.792;9.012;2023-07-13T05:35:08;3.63;;;2.13;;
10116;SDS011;5098;48.792;9.012;2023-07-13T05:37:34;8.57;;;2.50;;
10116;SDS011;5098;48.792;9.012;2023-07-13T05:40:00;5.47;;;2.47;;
10116;SDS011;5098;48.792;9.012;2023-07-13T05:42:26;4.10;;;2.00;;
10116;SDS011;5098;48.792;9.012;2023-07-13T05:44:52;3.10;;;2.20;;
10116;SDS011;5098;48.792;9.012;2023-07-13T05:47:18;5.63;;;2.20;;
10116;SDS011;5098;48.792;9.012;2023-07-13T05:49:44;5.10;;;2.27;;
10116;SDS011;5098;48.792;9.012;2023-07-13T05:52:10;3.60;;;2.33;;
10116;SDS011;5098;48.792;9.012;2023-07-13T05:54:36;4.27;;;2.17;;
10116;SDS011;5098;48.792;9.012;2023-07-13T05:57:02;4.17;;;2.37;;
10116;SDS011;5098;48.792;9.012;2023-07-13T05:59:28;4.83;;;2.00;;
10116;SDS011;5098;48.792;9.012;2023-07-13T06:01:54;5.10;;;2.50;;
10116;SDS011;5098;48.792;9.012;2023-07-13T06:04:20;2.83;;;2.20;;
10116;SDS011;5098;48.792;9.012;2023-07-13T06:06:47;4.50;;;2.87;;
10116;SDS011;5098;48.792;9.012;2023-07-13T06:09:13;6.93;;;2.53;;
10116;SDS011;5098;48.792;9.012;2023-07-13T06:11:39;5.53;;;2.40;;
10116;SDS011;5098;48.792;9.012;2023-07-13T06:14:05;3.23;;;2.37;;
10116;SDS011;5098;48.792;9.012;2023-07-13T06:16:31;5.13;;;2.30;;
10116;SDS011;5098;48.792;9.012;2023-07-13T06:18:57;4.93;;;2.30;;
10116;SDS011;5098;48.792;9.012;2023-07-13T06:21:23;4.07;;;2.33;;
10116;SDS011;5098;48.792;9.012;2023-07-13T06:23:50;7.53;;;2.13;;
10116;SDS011;5098;48.792;9.012;2023-07-13T06:26:17;5.80;;;2.20;;
10116;SDS011;5098;48.792;9.012;2023-07-13T06:28:44;3.60;;;2.20;;
10116;SDS011;5098;48.792;9.012;2023-07-13T06:31:10;5.93;;;2.10;;
10116;SDS011;5098;48.792;9.012;2023-07-13T06:33:37;3.47;;;2.00;;
10116;SDS011;5098;48.792;9.012;2023-07-13T06:36:03;5.00;;;2.90;;
10116;SDS011;5098;48.792;9.012;2023-07-13T06:38:30;10.23;;;3.30;;
10116;SDS011;5098;48.792;9.012;2023-07-13T06:40:56;6.67;;;2.77;;
10116;SDS011;5098;48.792;9.012;2023-07-13T06:43:22;4.93;;;2.17;;
10116;SDS011;5098;48.792;9.012;2023-07-13T06:45:50;4.00;;;3.00;;
10116;SDS011;5098;48.792;9.012;2023-07-13T06:48:16;5.27;;;2.33;;
10116;SDS011;5098;48.792;9.012;2023-07-13T06:50:43;6.73;;;2.43;;
10116;SDS011;5098;48.792;9.012;2023-07-13T06:53:09;3.73;;;2.03;;
10116;SDS011;5098;48.792;9.012;2023-07-13T06:55:35;2.70;;;2.13;;
10116;SDS011;5098;48.792;9.012;2023-07-13T06:58:01;7.43;;;2.20;;
10116;SDS011;5098;48.792;9.012;2023-07-13T07:00:28;6.90;;;2.40;;
10116;SDS011;5098;48.792;9.012;2023-07-13T07:02:54;7.57;;;3.10;;
10116;SDS011;5098;48.792;9.012;2023-07-13T07:05:20;6.90;;;2.77;;
10116;SDS011;5098;48.792;9.012;2023-07-13T07:07:50;3.40;;;1.97;;
10116;SDS011;5098;48.792;9.012;2023-07-13T07:10:16;3.10;;;2.77;;
10116;SDS011;5098;48.792;9.012;2023-07-13T07:12:42;2.77;;;2.10;;
10116;SDS011;5098;48.792;9.012;2023-07-13T07:15:08;6.37;;;1.93;;
10116;SDS011;5098;48.792;9.012;2023-07-13T07:17:35;4.60;;;2.07;;
10116;SDS011;5098;48.792;9.012;2023-07-13T07:20:01;3.57;;;1.80;;
10116;SDS011;5098;48.792;9.012;2023-07-13T07:22:28;2.30;;;1.60;;
10116;SDS011;5098;48.792;9.012;2023-07-13T07:24:55;10.20;;;2.73;;
10116;SDS011;5098;48.792;9.012;2023-07-13T07:27:21;4.70;;;2.67;;
10116;SDS011;5098;48.792;9.012;2023-07-13T07:29:47;6.17;;;2.00;;
10116;SDS011;5098;48.792;9.012;2023-07-13T07:32:13;3.77;;;1.87;;
10116;SDS011;5098;48.792;9.012;2023-07-13T07:34:39;4.50;;;2.00;;
10116;SDS011;5098;48.792;9.012;2023-07-13T07:37:05;6.10;;;1.97;;
10116;SDS011;5098;48.792;9.012;2023-07-13T07:39:31;7.43;;;2.00;;
10116;SDS011;5098;48.792;9.012;2023-07-13T07:41:58;5.60;;;2.23;;
10116;SDS011;5098;48.792;9.012;2023-07-13T07:44:24;7.93;;;1.70;;
10116;SDS011;5098;48.792;9.012;2023-07-13T07:46:51;5.70;;;2.13;;
10116;SDS011;5098;48.792;9.012;2023-07-13T07:49:18;14.13;;;3.00;;
10116;SDS011;5098;48.792;9.012;2023-07-13T07:51:44;3.30;;;2.10;;
10116;SDS011;5098;48.792;9.012;2023-07-13T07:54:10;2.73;;;1.90;;
10116;SDS011;5098;48.792;9.012;2023-07-13T07:56:36;4.70;;;2.00;;
10116;SDS011;5098;48.792;9.012;2023-07-13T07:59:02;4.00;;;1.87;;
10116;SDS011;5098;48.792;9.012;2023-07-13T08:01:28;3.80;;;1.60;;
10116;SDS011;5098;48.792;9.012;2023-07-13T08:03:54;5.80;;;1.93;;
10116;SDS011;5098;48.792;9.012;2023-07-13T08:06:20;8.60;;;2.07;;
10116;SDS011;5098;48.792;9.012;2023-07-13T08:08:46;3.80;;;2.43;;
10116;SDS011;5098;48.792;9.012;2023-07-13T08:11:13;4.63;;;2.30;;
10116;SDS011;5098;48.792;9.012;2023-07-13T08:13:39;4.13;;;2.17;;
10116;SDS011;5098;48.792;9.012;2023-07-13T08:16:05;2.30;;;1.33;;
10116;SDS011;5098;48.792;9.012;2023-07-13T08:18:32;5.30;;;1.70;;
10116;SDS011;5098;48.792;9.012;2023-07-13T08:20:58;3.43;;;1.63;;
10116;SDS011;5098;48.792;9.012;2023-07-13T08:23:24;4.20;;;1.53;;
10116;SDS011;5098;48.792;9.012;2023-07-13T08:25:54;3.00;;;1.50;;
10116;SDS011;5098;48.792;9.012;2023-07-13T08:28:21;6.73;;;1.70;;
10116;SDS011;5098;48.792;9.012;2023-07-13T08:30:47;2.87;;;1.73;;
10116;SDS011;5098;48.792;9.012;2023-07-13T08:33:14;3.37;;;1.70;;
10116;SDS011;5098;48.792;9.012;2023-07-13T08:35:40;4.30;;;1.67;;
10116;SDS011;5098;48.792;9.012;2023-07-13T08:38:06;2.70;;;1.57;;
10116;SDS011;5098;48.792;9.012;2023-07-13T08:40:33;3.13;;;1.80;;
10116;SDS011;5098;48.792;9.012;2023-07-13T08:42:59;2.90;;;1.53;;
10116;SDS011;5098;48.792;9.012;2023-07-13T08:45:30;4.00;;;1.70;;
10116;SDS011;5098;48.792;9.012;2023-07-13T08:50:26;3.40;;;2.40;;
10116;SDS011;5098;48.792;9.012;2023-07-13T08:52:53;2.27;;;1.57;;
10116;SDS011;5098;48.792;9.012;2023-07-13T08:55:22;2.53;;;1.50;;
10116;SDS011;5098;48.792;9.012;2023-07-13T08:58:10;6.20;;;1.80;;
10116;SDS011;5098;48.792;9.012;2023-07-13T09:00:39;5.53;;;1.70;;
10116;SDS011;5098;48.792;9.012;2023-07-13T09:03:12;2.83;;;1.60;;
10116;SDS011;5098;48.792;9.012;2023-07-13T09:05:45;3.37;;;1.60;;
10116;SDS011;5098;48.792;9.012;2023-07-13T09:10:43;5.43;;;1.70;;
10116;SDS011;5098;48.792;9.012;2023-07-13T09:13:18;3.40;;;1.53;;
10116;SDS011;5098;48.792;9.012;2023-07-13T09:15:47;4.87;;;1.43;;
10116;SDS011;5098;48.792;9.012;2023-07-13T09:23:14;2.87;;;1.60;;
10116;SDS011;5098;48.792;9.012;2023-07-13T09:25:40;4.90;;;1.67;;
10116;SDS011;5098;48.792;9.012;2023-07-13T09:28:16;3.13;;;1.47;;
10116;SDS011;5098;48.792;9.012;2023-07-13T09:30:49;4.00;;;2.20;;
10116;SDS011;5098;48.792;9.012;2023-07-13T09:33:20;5.07;;;1.70;;
10116;SDS011;5098;48.792;9.012;2023-07-13T09:35:46;5.87;;;1.43;;
10116;SDS011;5098;48.792;9.012;2023-07-13T09:38:13;2.80;;;1.60;;
10116;SDS011;5098;48.792;9.012;2023-07-13T09:43:10;3.87;;;1.70;;
10116;SDS011;5098;48.792;9.012;2023-07-13T09:45:37;4.13;;;1.67;;
10116;SDS011;5098;48.792;9.012;2023-07-13T09:48:10;4.93;;;2.00;;
10116;SDS011;5098;48.792;9.012;2023-07-13T09:50:38;4.70;;;1.80;;
10116;SDS011;5098;48.792;9.012;2023-07-13T09:53:04;2.57;;;1.60;;
10116;SDS011;5098;48.792;9.012;2023-07-13T09:55:37;2.80;;;1.73;;
10116;SDS011;5098;48.792;9.012;2023-07-13T09:58:11;2.23;;;1.53;;
10116;SDS011;5098;48.792;9.012;2023-07-13T10:00:38;4.20;;;2.13;;
10116;SDS011;5098;48.792;9.012;2023-07-13T10:03:13;4.90;;;2.00;;
10116;SDS011;5098;48.792;9.012;2023-07-13T10:05:41;2.67;;;1.37;;
10116;SDS011;5098;48.792;9.012;2023-07-13T10:08:17;2.67;;;1.60;;
10116;SDS011;5098;48.792;9.012;2023-07-13T10:10:44;3.10;;;1.80;;
10116;SDS011;5098;48.792;9.012;2023-07-13T10:13:24;3.63;;;1.93;;
10116;SDS011;5098;48.792;9.012;2023-07-13T10:15:51;3.63;;;1.63;;
10116;SDS011;5098;48.792;9.012;2023-07-13T10:18:17;3.80;;;2.03;;
10116;SDS011;5098;48.792;9.012;2023-07-13T10:20:44;5.73;;;2.13;;
10116;SDS011;5098;48.792;9.012;2023-07-13T10:23:13;3.07;;;1.87;;
10116;SDS011;5098;48.792;9.012;2023-07-13T10:25:41;7.37;;;2.03;;
10116;SDS011;5098;48.792;9.012;2023-07-13T10:28:25;4.37;;;1.53;;
10116;SDS011;5098;48.792;9.012;2023-07-13T10:30:52;4.67;;;1.90;;
10116;SDS011;5098;48.792;9.012;2023-07-13T10:33:19;3.30;;;2.13;;
10116;SDS011;5098;48.792;9.012;2023-07-13T10:35:47;3.70;;;1.60;;
10116;SDS011;5098;48.792;9.012;2023-07-13T10:38:20;4.80;;;2.13;;
10116;SDS011;5098;48.792;9.012;2023-07-13T10:43:20;2.87;;;1.60;;
10116;SDS011;5098;48.792;9.012;2023-07-13T10:45:48;5.23;;;3.10;;
10116;SDS011;5098;48.792;9.012;2023-07-13T10:48:15;6.20;;;3.90;;
10116;SDS011;5098;48.792;9.012;2023-07-13T10:50:42;3.60;;;1.80;;
10116;SDS011;5098;48.792;9.012;2023-07-13T11:00:49;2.70;;;1.60;;
10116;SDS011;5098;48.792;9.012;2023-07-13T11:03:17;3.30;;;2.00;;
10116;SDS011;5098;48.792;9.012;2023-07-13T11:05:47;5.27;;;2.07;;
10116;SDS011;5098;48.792;9.012;2023-07-13T11:13:35;5.73;;;1.70;;
10116;SDS011;5098;48.792;9.012;2023-07-13T11:15:57;3.30;;;1.53;;
10116;SDS011;5098;48.792;9.012;2023-07-13T11:18:24;3.10;;;1.90;;
10116;SDS011;5098;48.792;9.012;2023-07-13T11:20:50;4.90;;;1.80;;
10116;SDS011;5098;48.792;9.012;2023-07-13T11:23:19;4.20;;;2.27;;
10116;SDS011;5098;48.792;9.012;2023-07-13T11:25:45;6.70;;;1.97;;
10116;SDS011;5098;48.792;9.012;2023-07-13T11:35:38;3.30;;;1.83;;
10116;SDS011;5098;48.792;9.012;2023-07-13T11:38:12;7.30;;;1.80;;
10116;SDS011;5098;48.792;9.012;2023-07-13T11:40:39;4.87;;;2.00;;
10116;SDS011;5098;48.792;9.012;2023-07-13T11:43:06;3.20;;;1.77;;
10116;SDS011;5098;48.792;9.012;2023-07-13T11:45:33;3.90;;;2.10;;
10116;SDS011;5098;48.792;9.012;2023-07-13T11:47:59;3.47;;;1.73;;
10116;SDS011;5098;48.792;9.012;2023-07-13T11:50:26;2.80;;;2.07;;
10116;SDS011;5098;48.792;9.012;2023-07-13T11:52:52;4.17;;;2.50;;
10116;SDS011;5098;48.792;9.012;2023-07-13T11:55:21;6.10;;;1.83;;
10116;SDS011;5098;48.792;9.012;2023-07-13T11:57:50;6.63;;;2.20;;
10116;SDS011;5098;48.792;9.012;2023-07-13T12:00:18;2.93;;;1.93;;
10116;SDS011;5098;48.792;9.012;2023-07-13T12:02:50;5.93;;;1.90;;
10116;SDS011;5098;48.792;9.012;2023-07-13T12:05:17;3.20;;;1.97;;
10116;SDS011;5098;48.792;9.012;2023-07-13T12:07:43;4.40;;;1.70;;
10116;SDS011;5098;48.792;9.012;2023-07-13T12:10:26;4.93;;;2.30;;
10116;SDS011;5098;48.792;9.012;2023-07-13T12:13:00;3.13;;;1.80;;
10116;SDS011;5098;48.792;9.012;2023-07-13T12:15:35;5.63;;;1.97;;
10116;SDS011;5098;48.792;9.012;2023-07-13T12:18:02;3.70;;;1.70;;
10116;SDS011;5098;48.792;9.012;2023-07-13T12:20:33;3.03;;;2.23;;
10116;SDS011;5098;48.792;9.012;2023-07-13T12:23:00;3.37;;;1.93;;
10116;SDS011;5098;48.792;9.012;2023-07-13T12:25:27;3.13;;;1.77;;
10116;SDS011;5098;48.792;9.012;2023-07-13T12:27:55;3.70;;;2.70;;
10116;SDS011;5098;48.792;9.012;2023-07-13T12:30:31;8.37;;;1.90;;
10116;SDS011;5098;48.792;9.012;2023-07-13T12:33:02;3.30;;;1.93;;
10116;SDS011;5098;48.792;9.012;2023-07-13T12:35:38;3.33;;;1.80;;
10116;SDS011;5098;48.792;9.012;2023-07-13T12:38:07;4.40;;;2.37;;
10116;SDS011;5098;48.792;9.012;2023-07-13T12:40:34;3.20;;;1.70;;
10116;SDS011;5098;48.792;9.012;2023-07-13T12:43:01;5.23;;;2.40;;
10116;SDS011;5098;48.792;9.012;2023-07-13T12:45:29;3.53;;;1.90;;
10116;SDS011;5098;48.792;9.012;2023-07-13T12:47:57;2.93;;;1.50;;
10116;SDS011;5098;48.792;9.012;2023-07-13T12:50:33;5.00;;;1.90;;
10116;SDS011;5098;48.792;9.012;2023-07-13T12:53:02;5.13;;;2.10;;
10116;SDS011;5098;48.792;9.012;2023-07-13T12:55:28;5.67;;;2.03;;
10116;SDS011;5098;48.792;9.012;2023-07-13T12:57:58;3.73;;;1.93;;
10116;SDS011;5098;48.792;9.012;2023-07-13T13:02:52;3.47;;;1.90;;
10116;SDS011;5098;48.792;9.012;2023-07-13T13:05:18;3.30;;;2.20;;
10116;SDS011;5098;48.792;9.012;2023-07-13T13:07:48;5.40;;;2.23;;
10116;SDS011;5098;48.792;9.012;2023-07-13T13:10:14;3.20;;;1.80;;
10116;SDS011;5098;48.792;9.012;2023-07-13T13:12:41;6.43;;;1.70;;
10116;SDS011;5098;48.792;9.012;2023-07-13T13:15:10;3.37;;;2.67;;
10116;SDS011;5098;48.792;9.012;2023-07-13T13:17:37;2.93;;;2.20;;
10116;SDS011;5098;48.792;9.012;2023-07-13T13:20:19;5.10;;;2.23;;
10116;SDS011;5098;48.792;9.012;2023-07-13T13:22:46;5.70;;;2.50;;
10116;SDS011;5098;48.792;9.012;2023-07-13T13:25:12;3.70;;;1.80;;
10116;SDS011;5098;48.792;9.012;2023-07-13T13:27:39;5.67;;;1.90;;
10116;SDS011;5098;48.792;9.012;2023-07-13T13:30:10;6.30;;;2.07;;
10116;SDS011;5098;48.792;9.012;2023-07-13T13:32:38;3.43;;;1.87;;
10116;SDS011;5098;48.792;9.012;2023-07-13T13:35:04;4.30;;;1.73;;
10116;SDS011;5098;48.792;9.012;2023-07-13T13:37:31;2.83;;;1.97;;
10116;SDS011;5098;48.792;9.012;2023-07-13T13:39:57;4.47;;;2.20;;
10116;SDS011;5098;48.792;9.012;2023-07-13T13:42:23;5.17;;;1.90;;
10116;SDS011;5098;48.792;9.012;2023-07-13T13:44:51;3.07;;;1.80;;
10116;SDS011;5098;48.792;9.012;2023-07-13T13:47:36;3.80;;;1.87;;
10116;SDS011;5098;48.792;9.012;2023-07-13T13:50:16;3.03;;;1.60;;
10116;SDS011;5098;48.792;9.012;2023-07-13T13:52:42;2.57;;;1.60;;
10116;SDS011;5098;48.792;9.012;2023-07-13T13:55:15;3.50;;;2.13;;
10116;SDS011;5098;48.792;9.012;2023-07-13T13:57:43;2.60;;;1.47;;
10116;SDS011;5098;48.792;9.012;2023-07-13T14:00:10;2.50;;;1.93;;
10116;SDS011;5098;48.792;9.012;2023-07-13T14:02:39;6.50;;;2.00;;
10116;SDS011;5098;48.792;9.012;2023-07-13T14:05:06;5.30;;;2.30;;
10116;SDS011;5098;48.792;9.012;2023-07-13T14:07:32;2.40;;;1.70;;
10116;SDS011;5098;48.792;9.012;2023-07-13T14:09:58;4.37;;;1.90;;
10116;SDS011;5098;48.792;9.012;2023-07-13T14:12:28;3.57;;;2.40;;
10116;SDS011;5098;48.792;9.012;2023-07-13T14:14:55;5.37;;;2.00;;
10116;SDS011;5098;48.792;9.012;2023-07-13T14:17:24;3.83;;;1.80;;
10116;SDS011;5098;48.792;9.012;2023-07-13T14:19:51;4.33;;;2.00;;
10116;SDS011;5098;48.792;9.012;2023-07-13T14:22:22;2.93;;;1.80;;
10116;SDS011;5098;48.792;9.012;2023-07-13T14:24:49;3.20;;;1.73;;
10116;SDS011;5098;48.792;9.012;2023-07-13T14:27:15;3.17;;;1.60;;
10116;SDS011;5098;48.792;9.012;2023-07-13T14:29:41;4.00;;;2.03;;
10116;SDS011;5098;48.792;9.012;2023-07-13T14:32:11;2.80;;;1.80;;
10116;SDS011;5098;48.792;9.012;2023-07-13T14:34:37;4.10;;;1.80;;
10116;SDS011;5098;48.792;9.012;2023-07-13T14:37:04;4.40;;;2.00;;
10116;SDS011;5098;48.792;9.012;2023-07-13T14:39:30;5.20;;;1.77;;
10116;SDS011;5098;48.792;9.012;2023-07-13T14:41:57;2.30;;;1.63;;
10116;SDS011;5098;48.792;9.012;2023-07-13T14:44:25;5.90;;;2.30;;
10116;SDS011;5098;48.792;9.012;2023-07-13T14:46:51;5.10;;;1.87;;
10116;SDS011;5098;48.792;9.012;2023-07-13T14:49:30;5.83;;;1.80;;
10116;SDS011;5098;48.792;9.012;2023-07-13T14:51:58;4.73;;;1.73;;
10116;SDS011;5098;48.792;9.012;2023-07-13T14:54:25;2.63;;;1.73;;
10116;SDS011;5098;48.792;9.012;2023-07-13T14:56:51;4.13;;;1.97;;
10116;SDS011;5098;48.792;9.012;2023-07-13T14:59:17;7.60;;;1.90;;
10116;SDS011;5098;48.792;9.012;2023-07-13T15:01:44;4.63;;;1.63;;
10116;SDS011;5098;48.792;9.012;2023-07-13T15:04:11;3.83;;;2.20;;
10116;SDS011;5098;48.792;9.012;2023-07-13T15:06:54;4.47;;;1.80;;
10116;SDS011;5098;48.792;9.012;2023-07-13T15:09:21;7.00;;;1.67;;
10116;SDS011;5098;48.792;9.012;2023-07-13T15:11:51;2.53;;;1.60;;
10116;SDS011;5098;48.792;9.012;2023-07-13T15:14:17;4.40;;;2.00;;
10116;SDS011;5098;48.792;9.012;2023-07-13T15:16:43;3.60;;;1.60;;
10116;SDS011;5098;48.792;9.012;2023-07-13T15:19:10;3.33;;;1.60;;
10116;SDS011;5098;48.792;9.012;2023-07-13T15:21:36;4.80;;;2.00;;
10116;SDS011;5098;48.792;9.012;2023-07-13T15:24:02;3.57;;;1.90;;
10116;SDS011;5098;48.792;9.012;2023-07-13T15:26:28;3.33;;;2.20;;
10116;SDS011;5098;48.792;9.012;2023-07-13T15:28:55;4.90;;;2.87;;
10116;SDS011;5098;48.792;9.012;2023-07-13T15:31:22;4.67;;;2.43;;
10116;SDS011;5098;48.792;9.012;2023-07-13T15:33:49;3.40;;;2.10;;
10116;SDS011;5098;48.792;9.012;2023-07-13T15:36:16;2.67;;;1.63;;
10116;SDS011;5098;48.792;9.012;2023-07-13T15:38:43;3.63;;;2.30;;